Karen Pape — WDF9420 — position and weather

sailwx.info

Track history (hours):
 
Tides and Currents Weather Stations Pressure Air Temp Water Temp Dewpoint Dewpoint Depression Visibility Wind Speed Wind Dir Waves Ship Positions

Karen Pape

Owner: Genesis Marine, LLC, Houston, TX. More information available from US FCC via Universal Licensing System and Coast Guard Vessel Documentation Center.

Last reported at 2017-Oct-18 21:16 UTC. Time now 2017-Oct-20 03:03 UTC.
Position N 29°28' W 094°51'.

; draft 3 m.

Type: Towing. MMSI: 367504970.

Date/timePositionNaut miles runAvg speedWind from/ knotsBaromVisibWave heightAir tempDewpointWater temp
2017-Oct-18 21:16N 29°28' W 094°51'1 4.8
2017-Oct-18 21:00N 29°30' W 094°52'3 5.1
2017-Oct-18 20:30N 29°32' W 094°54'3 5.2
2017-Oct-18 20:00N 29°34' W 094°55'3 5.1
2017-Oct-18 19:30N 29°36' W 094°57'2 4.9
2017-Oct-18 19:00N 29°38' W 094°58'3 5.4
2017-Oct-18 18:30N 29°41' W 094°59'3 5.7
2017-Oct-18 17:59N 29°43' W 095°01'3 5.3
2017-Oct-18 17:30N 29°44' W 095°04'2 3.8
2017-Oct-18 16:54N 29°45' W 095°06'3 5.0
2017-Oct-18 16:22N 29°44' W 095°09'2 5.0
2017-Oct-18 15:58N 29°45' W 095°12'2 3.8
2017-Oct-18 15:29N 29°43' W 095°13'2 3.2
2017-Oct-18 14:59N 29°43' W 095°15'0 0.1
2017-Oct-18 13:59N 29°43' W 095°15'0 0.7
2017-Oct-18 13:30N 29°43' W 095°15'1 1.1
2017-Oct-18 13:00N 29°43' W 095°15'0 0.0
2017-Oct-18 12:30N 29°43' W 095°15'0 0.9
2017-Oct-18 11:58N 29°43' W 095°15'0 0.0
2017-Oct-18 11:08N 29°43' W 095°15'0 0.0
2017-Oct-18 10:43N 29°43' W 095°15'0 0.2
2017-Oct-18 10:30N 29°43' W 095°15'1 1.1
2017-Oct-18 09:58N 29°43' W 095°14'1 2.1
2017-Oct-18 09:31N 29°43' W 095°15'0 0.0
2017-Oct-18 09:00N 29°43' W 095°15'0 0.0
2017-Oct-18 08:30N 29°43' W 095°15'0 0.0
2017-Oct-18 07:53N 29°43' W 095°15'0 0.0
2017-Oct-18 07:13N 29°43' W 095°15'0 0.0
2017-Oct-18 06:59N 29°43' W 095°15'0 0.0
2017-Oct-18 06:30N 29°43' W 095°15'0 0.0
2017-Oct-18 05:54N 29°43' W 095°15'0 0.0
2017-Oct-18 05:21N 29°43' W 095°15'0 0.0
2017-Oct-18 04:58N 29°43' W 095°15'0 0.0
2017-Oct-18 04:30N 29°43' W 095°15'0 0.0
2017-Oct-18 04:00N 29°43' W 095°15'0 0.0
2017-Oct-18 03:30N 29°43' W 095°15'0 0.0
2017-Oct-18 03:00N 29°43' W 095°15'0 0.0
2017-Oct-18 02:30N 29°43' W 095°15'0 0.0
2017-Oct-18 01:59N 29°43' W 095°15'0 0.0
2017-Oct-18 01:30N 29°43' W 095°15'0 0.0
2017-Oct-18 00:58N 29°43' W 095°15'0 0.0
2017-Oct-18 00:30N 29°43' W 095°15'0 0.0
2017-Oct-18 00:00N 29°43' W 095°15'0 0.0
2017-Oct-17 23:30N 29°43' W 095°15'0 0.0
2017-Oct-17 20:09N 29°43' W 095°15'0 0.1
2017-Oct-17 20:00N 29°43' W 095°15'0 0.1
2017-Oct-17 19:21N 29°43' W 095°15'0 0.2
2017-Oct-17 19:01N 29°43' W 095°15'0 0.0
2017-Oct-17 18:30N 29°43' W 095°15'0 0.0
2017-Oct-17 18:00N 29°43' W 095°15'0 0.0
2017-Oct-17 17:30N 29°43' W 095°15'0 0.0
2017-Oct-17 17:00N 29°43' W 095°15'0 0.0
2017-Oct-17 16:30N 29°43' W 095°15'0 0.0
2017-Oct-17 16:01N 29°43' W 095°15'0 0.0
2017-Oct-17 15:30N 29°43' W 095°15'0 0.0
2017-Oct-17 15:00N 29°43' W 095°15'0 0.0
2017-Oct-17 14:30N 29°43' W 095°15'0 0.0
2017-Oct-17 14:01N 29°43' W 095°15'0 0.0
2017-Oct-17 13:30N 29°43' W 095°15'0 0.0
2017-Oct-17 13:00N 29°43' W 095°15'0 0.0
2017-Oct-17 12:30N 29°43' W 095°15'0 0.0
2017-Oct-17 12:00N 29°43' W 095°15'0 0.0
2017-Oct-17 11:31N 29°43' W 095°15'0 0.0
2017-Oct-17 11:00N 29°43' W 095°15'0 0.0
2017-Oct-17 10:30N 29°43' W 095°15'0 0.0
2017-Oct-17 10:01N 29°43' W 095°15'0 0.0
2017-Oct-17 09:30N 29°43' W 095°15'0 0.0
2017-Oct-17 08:59N 29°43' W 095°15'0 0.0
2017-Oct-17 08:30N 29°43' W 095°15'0 0.0
2017-Oct-17 08:00N 29°43' W 095°15'0 0.0
2017-Oct-17 07:31N 29°43' W 095°15'0 0.0
2017-Oct-17 07:01N 29°43' W 095°15'0 0.0
2017-Oct-17 06:30N 29°43' W 095°15'0 0.0
2017-Oct-17 06:01N 29°43' W 095°15'0 0.0
2017-Oct-17 05:31N 29°43' W 095°15'0 0.0
2017-Oct-17 05:01N 29°43' W 095°15'0 0.0
2017-Oct-17 04:30N 29°43' W 095°15'0 0.0
2017-Oct-17 04:00N 29°43' W 095°15'0 0.0
2017-Oct-17 03:27N 29°43' W 095°15'0 0.5
2017-Oct-17 03:01N 29°43' W 095°15'1 2.9
2017-Oct-17 02:30N 29°44' W 095°13'3 5.2
2017-Oct-17 02:00N 29°45' W 095°11'3 5.5
2017-Oct-17 01:30N 29°44' W 095°08'2 3.1
2017-Oct-17 00:50N 29°45' W 095°06'0 0.5
2017-Oct-17 00:31N 29°45' W 095°06'1 2.3
2017-Oct-16 23:59N 29°46' W 095°04'4 6.3
2017-Oct-16 23:26N 29°43' W 095°01'2 5.9
2017-Oct-16 23:01N 29°41' W 094°59'4 7.5
2017-Oct-16 22:31N 29°38' W 094°58'4 7.4
2017-Oct-16 22:01N 29°35' W 094°56'4 7.5
2017-Oct-16 21:31N 29°32' W 094°53'  
Track history (hours):
 
Tides and Currents Weather Stations Pressure Air Temp Water Temp Dewpoint Dewpoint Depression Visibility Wind Speed Wind Dir Waves Ship Positions

Karen Pape

Owner: Genesis Marine, LLC, Houston, TX. More information available from US FCC via Universal Licensing System and Coast Guard Vessel Documentation Center.

Last reported at 2017-Oct-18 21:16 UTC. Time now 2017-Oct-20 03:03 UTC.
Position N 29°28' W 094°51'.

; draft 3 m.

Type: Towing. MMSI: 367504970.

Date/timePositionNaut miles runAvg speedWind from/ knotsBaromVisibWave heightAir tempDewpointWater temp
2017-Oct-18 21:16N 29°28' W 094°51'1 4.8
2017-Oct-18 21:00N 29°30' W 094°52'3 5.1
2017-Oct-18 20:30N 29°32' W 094°54'3 5.2
2017-Oct-18 20:00N 29°34' W 094°55'3 5.1
2017-Oct-18 19:30N 29°36' W 094°57'2 4.9
2017-Oct-18 19:00N 29°38' W 094°58'3 5.4
2017-Oct-18 18:30N 29°41' W 094°59'3 5.7
2017-Oct-18 17:59N 29°43' W 095°01'3 5.3
2017-Oct-18 17:30N 29°44' W 095°04'2 3.8
2017-Oct-18 16:54N 29°45' W 095°06'3 5.0
2017-Oct-18 16:22N 29°44' W 095°09'2 5.0
2017-Oct-18 15:58N 29°45' W 095°12'2 3.8
2017-Oct-18 15:29N 29°43' W 095°13'2 3.2
2017-Oct-18 14:59N 29°43' W 095°15'0 0.1
2017-Oct-18 13:59N 29°43' W 095°15'0 0.7
2017-Oct-18 13:30N 29°43' W 095°15'1 1.1
2017-Oct-18 13:00N 29°43' W 095°15'0 0.0
2017-Oct-18 12:30N 29°43' W 095°15'0 0.9
2017-Oct-18 11:58N 29°43' W 095°15'0 0.0
2017-Oct-18 11:08N 29°43' W 095°15'0 0.0
2017-Oct-18 10:43N 29°43' W 095°15'0 0.2
2017-Oct-18 10:30N 29°43' W 095°15'1 1.1
2017-Oct-18 09:58N 29°43' W 095°14'1 2.1
2017-Oct-18 09:31N 29°43' W 095°15'0 0.0
2017-Oct-18 09:00N 29°43' W 095°15'0 0.0
2017-Oct-18 08:30N 29°43' W 095°15'0 0.0
2017-Oct-18 07:53N 29°43' W 095°15'0 0.0
2017-Oct-18 07:13N 29°43' W 095°15'0 0.0
2017-Oct-18 06:59N 29°43' W 095°15'0 0.0
2017-Oct-18 06:30N 29°43' W 095°15'0 0.0
2017-Oct-18 05:54N 29°43' W 095°15'0 0.0
2017-Oct-18 05:21N 29°43' W 095°15'0 0.0
2017-Oct-18 04:58N 29°43' W 095°15'0 0.0
2017-Oct-18 04:30N 29°43' W 095°15'0 0.0
2017-Oct-18 04:00N 29°43' W 095°15'0 0.0
2017-Oct-18 03:30N 29°43' W 095°15'0 0.0
2017-Oct-18 03:00N 29°43' W 095°15'0 0.0
2017-Oct-18 02:30N 29°43' W 095°15'0 0.0
2017-Oct-18 01:59N 29°43' W 095°15'0 0.0
2017-Oct-18 01:30N 29°43' W 095°15'0 0.0
2017-Oct-18 00:58N 29°43' W 095°15'0 0.0
2017-Oct-18 00:30N 29°43' W 095°15'0 0.0
2017-Oct-18 00:00N 29°43' W 095°15'0 0.0
2017-Oct-17 23:30N 29°43' W 095°15'0 0.0
2017-Oct-17 20:09N 29°43' W 095°15'0 0.1
2017-Oct-17 20:00N 29°43' W 095°15'0 0.1
2017-Oct-17 19:21N 29°43' W 095°15'0 0.2
2017-Oct-17 19:01N 29°43' W 095°15'0 0.0
2017-Oct-17 18:30N 29°43' W 095°15'0 0.0
2017-Oct-17 18:00N 29°43' W 095°15'0 0.0
2017-Oct-17 17:30N 29°43' W 095°15'0 0.0
2017-Oct-17 17:00N 29°43' W 095°15'0 0.0
2017-Oct-17 16:30N 29°43' W 095°15'0 0.0
2017-Oct-17 16:01N 29°43' W 095°15'0 0.0
2017-Oct-17 15:30N 29°43' W 095°15'0 0.0
2017-Oct-17 15:00N 29°43' W 095°15'0 0.0
2017-Oct-17 14:30N 29°43' W 095°15'0 0.0
2017-Oct-17 14:01N 29°43' W 095°15'0 0.0
2017-Oct-17 13:30N 29°43' W 095°15'0 0.0
2017-Oct-17 13:00N 29°43' W 095°15'0 0.0
2017-Oct-17 12:30N 29°43' W 095°15'0 0.0
2017-Oct-17 12:00N 29°43' W 095°15'0 0.0
2017-Oct-17 11:31N 29°43' W 095°15'0 0.0
2017-Oct-17 11:00N 29°43' W 095°15'0 0.0
2017-Oct-17 10:30N 29°43' W 095°15'0 0.0
2017-Oct-17 10:01N 29°43' W 095°15'0 0.0
2017-Oct-17 09:30N 29°43' W 095°15'0 0.0
2017-Oct-17 08:59N 29°43' W 095°15'0 0.0
2017-Oct-17 08:30N 29°43' W 095°15'0 0.0
2017-Oct-17 08:00N 29°43' W 095°15'0 0.0
2017-Oct-17 07:31N 29°43' W 095°15'0 0.0
2017-Oct-17 07:01N 29°43' W 095°15'0 0.0
2017-Oct-17 06:30N 29°43' W 095°15'0 0.0
2017-Oct-17 06:01N 29°43' W 095°15'0 0.0
2017-Oct-17 05:31N 29°43' W 095°15'0 0.0
2017-Oct-17 05:01N 29°43' W 095°15'0 0.0
2017-Oct-17 04:30N 29°43' W 095°15'0 0.0
2017-Oct-17 04:00N 29°43' W 095°15'0 0.0
2017-Oct-17 03:27N 29°43' W 095°15'0 0.5
2017-Oct-17 03:01N 29°43' W 095°15'1 2.9
2017-Oct-17 02:30N 29°44' W 095°13'3 5.2
2017-Oct-17 02:00N 29°45' W 095°11'3 5.5
2017-Oct-17 01:30N 29°44' W 095°08'2 3.1
2017-Oct-17 00:50N 29°45' W 095°06'0 0.5
2017-Oct-17 00:31N 29°45' W 095°06'1 2.3
2017-Oct-16 23:59N 29°46' W 095°04'4 6.3
2017-Oct-16 23:26N 29°43' W 095°01'2 5.9
2017-Oct-16 23:01N 29°41' W 094°59'4 7.5
2017-Oct-16 22:31N 29°38' W 094°58'4 7.4
2017-Oct-16 22:01N 29°35' W 094°56'4 7.5
2017-Oct-16 21:31N 29°32' W 094°53'  

Dump ship's entire track history